createdAt,value
2023-02-07T00:02:23.090Z,93068.22
2023-02-07T00:04:55.763Z,93069.16
2023-02-07T00:07:28.271Z,93069.38
2023-02-07T00:10:01.682Z,93070.13
2023-02-07T00:12:34.718Z,93080.75
2023-02-07T00:15:08.776Z,93079.13
2023-02-07T00:17:41.293Z,93080.41
2023-02-07T00:20:13.856Z,93088.31
2023-02-07T00:22:46.828Z,93084.50
2023-02-07T00:25:20.534Z,93098.09
2023-02-07T00:27:53.173Z,93093.47
2023-02-07T00:30:25.823Z,93094.72
2023-02-07T00:32:58.342Z,93103.09
2023-02-07T00:35:30.938Z,93096.91
2023-02-07T00:38:03.945Z,93100.78
2023-02-07T00:40:39.662Z,93110.97
2023-02-07T00:43:21.430Z,93108.91
2023-02-07T00:46:02.937Z,93099.84
2023-02-07T00:48:38.718Z,93103.63
2023-02-07T00:51:13.849Z,93118.03
2023-02-07T00:53:47.417Z,93107.28
2023-02-07T00:56:21.260Z,93108.47
2023-02-07T00:58:53.787Z,93105.41
2023-02-07T01:01:28.406Z,93100.63
2023-02-07T01:04:02.101Z,93103.00
2023-02-07T01:06:36.398Z,93100.50
2023-02-07T01:09:09.882Z,93099.38
2023-02-07T01:11:43.074Z,93090.53
2023-02-07T01:14:15.512Z,93099.44
2023-02-07T01:16:49.410Z,93099.72
2023-02-07T01:19:22.060Z,93092.50
2023-02-07T01:21:58.773Z,93095.41
2023-02-07T01:24:31.263Z,93100.50
2023-02-07T01:27:05.766Z,93098.09
2023-02-07T01:29:39.225Z,93096.00
2023-02-07T01:32:11.705Z,93092.69
2023-02-07T01:34:44.218Z,93090.09
2023-02-07T01:37:16.711Z,93076.59
2023-02-07T01:39:49.323Z,93080.84
2023-02-07T01:42:25.310Z,93073.41
2023-02-07T01:45:15.789Z,93072.16
2023-02-07T01:47:48.509Z,93075.06
2023-02-07T01:50:22.070Z,93071.94
2023-02-07T01:52:57.825Z,93069.69
2023-02-07T01:55:34.282Z,93070.31
2023-02-07T01:58:08.129Z,93078.72
2023-02-07T02:00:41.674Z,93077.34
2023-02-07T02:03:14.570Z,93077.00
2023-02-07T02:05:49.521Z,93080.44
2023-02-07T02:08:24.027Z,93078.50
2023-02-07T02:11:21.406Z,93070.31
2023-02-07T02:14:04.077Z,93075.22
2023-02-07T02:16:43.242Z,93072.69
2023-02-07T02:19:45.597Z,93074.69
2023-02-07T02:22:56.301Z,93074.19
2023-02-07T02:26:02.843Z,93072.28
2023-02-07T02:29:14.762Z,93086.47
2023-02-07T02:32:19.371Z,93084.41
2023-02-07T02:34:58.772Z,93078.00
2023-02-07T02:37:40.944Z,93084.06
2023-02-07T02:40:21.802Z,93086.94
2023-02-07T02:43:01.132Z,93062.28
2023-02-07T02:45:36.741Z,93081.22
2023-02-07T02:48:11.262Z,93086.97
2023-02-07T02:50:46.839Z,93087.97
2023-02-07T02:53:21.371Z,93067.44
2023-02-07T02:56:32.112Z,93092.34
2023-02-07T02:59:30.223Z,93099.00
2023-02-07T03:02:17.327Z,93095.34
2023-02-07T03:05:11.511Z,93103.91
2023-02-07T03:07:51.980Z,93105.31
2023-02-07T03:10:32.324Z,93104.25
2023-02-07T03:13:14.301Z,93108.19
2023-02-07T03:15:56.648Z,93104.09
2023-02-07T03:18:39.840Z,93102.31
2023-02-07T03:21:19.595Z,93107.22
2023-02-07T03:23:55.793Z,93110.34
2023-02-07T03:26:30.705Z,93109.69
2023-02-07T03:29:06.388Z,93106.69
2023-02-07T03:31:43.435Z,93103.84
2023-02-07T03:34:20.394Z,93104.44
2023-02-07T03:36:56.867Z,93107.16
2023-02-07T03:39:30.286Z,93113.81
2023-02-07T03:42:07.315Z,93105.88
2023-02-07T03:44:42.927Z,93108.78
2023-02-07T03:47:17.182Z,93115.13
2023-02-07T03:49:49.672Z,93112.78
2023-02-07T03:52:22.819Z,93108.34
2023-02-07T03:54:55.981Z,93109.50
2023-02-07T03:57:28.532Z,93112.34
2023-02-07T04:00:00.920Z,93109.66
2023-02-07T04:02:33.606Z,93106.63
2023-02-07T04:05:06.922Z,93109.81
2023-02-07T04:07:40.014Z,93109.66
2023-02-07T04:10:13.278Z,93109.34
2023-02-07T04:12:45.856Z,93105.38
2023-02-07T04:15:18.718Z,93110.91
2023-02-07T04:17:51.171Z,93101.41
2023-02-07T04:20:23.641Z,93102.56
2023-02-07T04:22:56.104Z,93108.09
2023-02-07T04:25:29.313Z,93103.03
2023-02-07T04:28:02.237Z,93107.16
2023-02-07T04:30:34.679Z,93114.13
2023-02-07T04:33:07.300Z,93110.16
2023-02-07T04:35:39.844Z,93103.34
2023-02-07T04:38:12.372Z,93112.06
2023-02-07T04:40:45.535Z,93112.72
2023-02-07T04:43:18.449Z,93115.38
2023-02-07T04:45:51.022Z,93109.69
2023-02-07T04:48:23.748Z,93118.06
2023-02-07T04:50:56.659Z,93119.34
2023-02-07T04:53:29.064Z,93132.97
2023-02-07T04:56:02.173Z,93128.38
2023-02-07T04:58:34.645Z,93131.06
2023-02-07T05:01:07.163Z,93132.81
2023-02-07T05:03:39.603Z,93130.59
2023-02-07T05:06:12.506Z,93134.09
2023-02-07T05:08:44.944Z,93141.84
2023-02-07T05:11:18.954Z,93139.78
2023-02-07T05:13:51.347Z,93148.31
2023-02-07T05:16:23.995Z,93155.31
2023-02-07T05:18:56.520Z,93151.34
2023-02-07T05:21:29.076Z,93144.38
2023-02-07T05:24:01.766Z,93146.59
2023-02-07T05:26:34.941Z,93153.56
2023-02-07T05:29:07.571Z,93152.63
2023-02-07T05:32:05.260Z,93161.31
2023-02-07T05:34:39.047Z,93157.69
2023-02-07T05:37:11.520Z,93160.06
2023-02-07T05:39:44.114Z,93161.66
2023-02-07T05:42:17.445Z,93167.50
2023-02-07T05:44:50.225Z,93172.56
2023-02-07T05:47:22.635Z,93178.44
2023-02-07T05:49:55.345Z,93179.41
2023-02-07T05:52:27.873Z,93183.50
2023-02-07T05:55:00.408Z,93189.38
2023-02-07T05:57:33.662Z,93186.69
2023-02-07T06:00:07.342Z,93185.25
2023-02-07T06:02:44.627Z,93187.66
2023-02-07T06:05:19.853Z,93191.44
2023-02-07T06:07:52.691Z,93198.72
2023-02-07T06:10:25.283Z,93182.56
2023-02-07T06:12:58.328Z,93190.03
2023-02-07T06:15:30.895Z,93197.63
2023-02-07T06:18:03.441Z,93198.13
2023-02-07T06:20:36.030Z,93195.09
2023-02-07T06:23:08.495Z,93197.63
2023-02-07T06:25:41.085Z,93200.00
2023-02-07T06:28:14.509Z,93197.78
2023-02-07T06:30:47.206Z,93209.34
2023-02-07T06:33:19.770Z,93211.88
2023-02-07T06:35:54.886Z,93206.97
2023-02-07T06:38:27.322Z,93220.44
2023-02-07T06:40:59.689Z,93226.59
2023-02-07T06:43:32.772Z,93234.72
2023-02-07T06:46:05.542Z,93226.78
2023-02-07T06:48:37.946Z,93228.84
2023-02-07T06:51:10.680Z,93229.97
2023-02-07T06:53:43.339Z,93229.81
2023-02-07T06:56:18.402Z,93231.41
2023-02-07T06:58:52.383Z,93230.75
2023-02-07T07:01:24.929Z,93226.78
2023-02-07T07:03:57.754Z,93223.75
2023-02-07T07:06:30.296Z,93234.38
2023-02-07T07:09:03.612Z,93232.00
2023-02-07T07:11:38.366Z,93225.34
2023-02-07T07:14:12.312Z,93223.44
2023-02-07T07:16:44.755Z,93230.88
2023-02-07T07:19:17.176Z,93235.16
2023-02-07T07:21:49.705Z,93232.44
2023-02-07T07:24:22.177Z,93236.41
2023-02-07T07:26:55.896Z,93233.84
2023-02-07T07:29:29.261Z,93238.44
2023-02-07T07:32:01.958Z,93235.28
2023-02-07T07:34:34.530Z,93237.94
2023-02-07T07:37:07.190Z,93230.81
2023-02-07T07:39:39.605Z,93238.25
2023-02-07T07:42:12.628Z,93231.34
2023-02-07T07:45:04.982Z,93226.28
2023-02-07T07:47:37.432Z,93233.25
2023-02-07T07:50:10.018Z,93225.91
2023-02-07T07:52:42.767Z,93224.44
2023-02-07T07:55:15.536Z,93224.34
2023-02-07T07:57:48.213Z,93230.44
2023-02-07T08:00:21.344Z,93226.19
2023-02-07T08:02:53.770Z,93228.50
2023-02-07T08:05:26.224Z,93229.09
2023-02-07T08:07:58.641Z,93232.03
2023-02-07T08:10:31.195Z,93236.59
2023-02-07T08:13:04.176Z,93216.75
2023-02-07T08:15:38.581Z,93230.16
2023-02-07T08:18:11.154Z,93231.75
2023-02-07T08:20:43.610Z,93234.91
2023-02-07T08:23:16.020Z,93234.97
2023-02-07T08:25:49.444Z,93228.81
2023-02-07T08:28:22.505Z,93235.44
2023-02-07T08:30:59.863Z,93237.25
2023-02-07T08:33:32.952Z,93235.38
2023-02-07T08:36:08.615Z,93231.25
2023-02-07T08:38:41.141Z,93239.16
2023-02-07T08:41:13.541Z,93230.91
2023-02-07T08:43:45.962Z,93232.91
2023-02-07T08:46:19.222Z,93234.13
2023-02-07T08:48:51.673Z,93240.56
2023-02-07T08:51:24.691Z,93235.66
2023-02-07T08:53:57.148Z,93239.13
2023-02-07T08:56:29.617Z,93238.09
2023-02-07T08:59:02.314Z,93242.97
2023-02-07T09:01:35.411Z,93245.56
2023-02-07T09:04:12.066Z,93244.44
2023-02-07T09:06:44.597Z,93242.44
2023-02-07T09:09:18.094Z,93251.34
2023-02-07T09:11:50.706Z,93240.59
2023-02-07T09:14:23.199Z,93237.97
2023-02-07T09:16:56.322Z,93239.91
2023-02-07T09:19:28.740Z,93234.28
2023-02-07T09:22:01.380Z,93234.91
2023-02-07T09:24:34.113Z,93244.72
2023-02-07T09:27:06.491Z,93251.13
2023-02-07T09:29:39.007Z,93250.53
2023-02-07T09:32:12.080Z,93236.09
2023-02-07T09:34:44.584Z,93236.72
2023-02-07T09:37:17.598Z,93239.88
2023-02-07T09:39:50.289Z,93238.22
2023-02-07T09:42:29.576Z,93238.53
2023-02-07T09:45:08.450Z,93231.66
2023-02-07T09:47:44.118Z,93243.91
2023-02-07T09:50:21.987Z,93227.88
2023-02-07T09:52:57.414Z,93231.88
2023-02-07T09:55:36.369Z,93238.25
2023-02-07T09:58:14.389Z,93234.00
2023-02-07T10:00:53.254Z,93231.22
2023-02-07T10:03:28.766Z,93219.13
2023-02-07T10:06:17.497Z,93224.47
2023-02-07T10:08:55.005Z,93214.38
2023-02-07T10:11:41.116Z,93210.81
2023-02-07T10:14:30.607Z,93215.94
2023-02-07T10:17:30.578Z,93211.81
2023-02-07T10:20:29.530Z,93208.06
2023-02-07T10:23:15.389Z,93207.16
2023-02-07T10:25:58.193Z,93200.41
2023-02-07T10:28:58.302Z,93193.16
2023-02-07T10:31:33.363Z,93193.66
2023-02-07T10:34:13.215Z,93189.28
2023-02-07T10:36:49.273Z,93191.28
2023-02-07T10:39:26.823Z,93197.50
2023-02-07T10:41:59.475Z,93186.19
2023-02-07T10:44:32.245Z,93183.97
2023-02-07T10:47:06.746Z,93184.25
2023-02-07T10:49:39.410Z,93177.56
2023-02-07T10:52:34.895Z,93174.41
2023-02-07T10:55:10.126Z,93171.59
2023-02-07T10:57:59.755Z,93151.00
2023-02-07T11:00:34.250Z,93174.25
2023-02-07T11:03:12.738Z,93164.28
2023-02-07T11:05:54.915Z,93163.50
2023-02-07T11:08:29.937Z,93158.72
2023-02-07T11:11:24.764Z,93161.91
2023-02-07T11:14:14.223Z,93151.16
2023-02-07T11:16:46.916Z,93151.97
2023-02-07T11:19:22.224Z,93141.19
2023-02-07T11:22:07.464Z,93152.22
2023-02-07T11:24:42.191Z,93149.72
2023-02-07T11:27:16.501Z,93154.53
2023-02-07T11:29:52.989Z,93152.13
2023-02-07T11:32:27.616Z,93144.50
2023-02-07T11:35:05.151Z,93149.22
2023-02-07T11:37:41.251Z,93144.66
2023-02-07T11:40:24.532Z,93141.44
2023-02-07T11:43:01.608Z,93137.84
2023-02-07T11:45:35.427Z,93132.47
2023-02-07T11:48:17.029Z,93129.13
2023-02-07T11:50:54.619Z,93130.16
2023-02-07T11:53:35.361Z,93129.84
2023-02-07T11:56:22.743Z,93134.63
2023-02-07T11:58:57.351Z,93125.50
2023-02-07T12:01:33.034Z,93131.34
2023-02-07T12:04:11.774Z,93127.59
2023-02-07T12:06:50.923Z,93130.16
2023-02-07T12:09:34.426Z,93131.34
2023-02-07T12:12:14.567Z,93128.75
2023-02-07T12:14:51.817Z,93125.88
2023-02-07T12:17:29.232Z,93127.94
2023-02-07T12:20:09.211Z,93123.78
2023-02-07T12:23:00.212Z,93115.69
2023-02-07T12:25:48.134Z,93119.38
2023-02-07T12:28:28.393Z,93118.78
2023-02-07T12:31:15.074Z,93119.44
2023-02-07T12:33:57.081Z,93121.22
2023-02-07T12:36:33.936Z,93130.31
2023-02-07T12:39:14.818Z,93122.75
2023-02-07T12:41:53.212Z,93124.38
2023-02-07T12:44:32.168Z,93113.69
2023-02-07T12:47:10.015Z,93115.09
2023-02-07T12:50:08.011Z,93116.13
2023-02-07T12:52:49.812Z,93128.09
2023-02-07T12:55:34.877Z,93122.97
2023-02-07T12:58:25.340Z,93123.41
2023-02-07T13:01:02.582Z,93121.81
2023-02-07T13:03:56.631Z,93121.56
2023-02-07T13:06:37.898Z,93123.00
2023-02-07T13:09:16.069Z,93115.97
2023-02-07T13:11:59.920Z,93130.25
2023-02-07T13:14:42.485Z,93126.25
2023-02-07T13:17:35.089Z,93107.19
2023-02-07T13:20:22.201Z,93117.09
2023-02-07T13:22:57.347Z,93114.41
2023-02-07T13:25:34.273Z,93121.13
2023-02-07T13:28:11.747Z,93120.59
2023-02-07T13:30:47.275Z,93118.88
2023-02-07T13:33:28.154Z,93118.88
2023-02-07T13:36:07.162Z,93109.59
2023-02-07T13:38:55.295Z,93116.75
2023-02-07T13:41:37.051Z,93112.22
2023-02-07T13:44:20.119Z,93108.88
2023-02-07T13:47:12.867Z,93111.63
2023-02-07T13:49:57.258Z,93114.59
2023-02-07T13:52:35.309Z,93116.00
2023-02-07T13:55:22.058Z,93110.66
2023-02-07T13:58:12.554Z,93110.25
2023-02-07T14:01:09.741Z,93118.25
2023-02-07T14:04:00.403Z,93124.94
2023-02-07T14:06:36.664Z,93125.72
2023-02-07T14:09:17.134Z,93115.66
2023-02-07T14:11:56.773Z,93115.63
2023-02-07T14:14:29.772Z,93112.88
2023-02-07T14:17:04.066Z,93109.69
2023-02-07T14:19:51.570Z,93118.13
2023-02-07T14:22:28.044Z,93121.72
2023-02-07T14:25:22.455Z,93119.34
2023-02-07T14:28:19.056Z,93118.56
2023-02-07T14:31:11.189Z,93118.59
2023-02-07T14:34:11.146Z,93106.28
2023-02-07T14:36:43.769Z,93116.31
2023-02-07T14:39:31.763Z,93121.22
2023-02-07T14:42:12.517Z,93127.44
2023-02-07T14:44:47.701Z,93120.22
2023-02-07T14:47:25.009Z,93124.00
2023-02-07T14:50:00.421Z,93123.91
2023-02-07T14:52:37.415Z,93127.72
2023-02-07T14:55:17.572Z,93122.28
2023-02-07T14:57:55.969Z,93132.84
2023-02-07T15:00:32.949Z,93130.78
2023-02-07T15:03:12.441Z,93135.16
2023-02-07T15:05:50.627Z,93130.72
2023-02-07T15:08:25.698Z,93132.03
2023-02-07T15:11:02.151Z,93115.44
2023-02-07T15:13:37.729Z,93130.41
2023-02-07T15:16:15.854Z,93135.91
2023-02-07T15:18:52.343Z,93131.03
2023-02-07T15:21:30.074Z,93132.03
2023-02-07T15:24:05.318Z,93135.31
2023-02-07T15:26:38.764Z,93135.53
2023-02-07T15:29:20.234Z,93131.50
2023-02-07T15:31:52.839Z,93136.59
2023-02-07T15:34:30.925Z,93137.34
2023-02-07T15:37:13.563Z,93144.91
2023-02-07T15:39:47.058Z,93139.47
2023-02-07T15:42:21.272Z,93149.69
2023-02-07T15:44:55.354Z,93139.63
2023-02-07T15:47:35.775Z,93155.78
2023-02-07T15:50:21.605Z,93150.63
2023-02-07T15:52:56.468Z,93134.81
2023-02-07T15:55:34.032Z,93144.75
2023-02-07T15:58:08.550Z,93152.25
2023-02-07T16:00:41.456Z,93148.97
2023-02-07T16:03:20.255Z,93150.78
2023-02-07T16:06:01.940Z,93155.88
2023-02-07T16:08:38.254Z,93146.66
2023-02-07T16:11:34.169Z,93154.56
2023-02-07T16:14:21.970Z,93160.41
2023-02-07T16:16:56.259Z,93170.84
2023-02-07T16:19:30.437Z,93169.22
2023-02-07T16:22:06.684Z,93173.66
2023-02-07T16:24:42.298Z,93178.53
2023-02-07T16:27:18.260Z,93175.69
2023-02-07T16:29:51.681Z,93171.34
2023-02-07T16:32:27.087Z,93171.91
2023-02-07T16:35:00.353Z,93166.94
2023-02-07T16:37:32.897Z,93170.75
2023-02-07T16:40:06.449Z,93177.97
2023-02-07T16:42:39.521Z,93169.34
2023-02-07T16:45:18.958Z,93181.50
2023-02-07T16:47:52.103Z,93175.09
2023-02-07T16:50:26.221Z,93187.69
2023-02-07T16:52:58.809Z,93180.06
2023-02-07T16:55:33.325Z,93180.78
2023-02-07T16:58:07.055Z,93185.16
2023-02-07T17:00:40.607Z,93184.22
2023-02-07T17:03:15.265Z,93174.44
2023-02-07T17:05:47.926Z,93192.16
2023-02-07T17:08:26.152Z,93200.97
2023-02-07T17:11:01.608Z,93199.72
2023-02-07T17:13:34.033Z,93204.75
2023-02-07T17:16:11.166Z,93197.28
2023-02-07T17:18:43.544Z,93206.16
2023-02-07T17:21:16.252Z,93212.41
2023-02-07T17:23:49.061Z,93214.25
2023-02-07T17:26:24.957Z,93207.81
2023-02-07T17:28:57.546Z,93220.81
2023-02-07T17:31:31.731Z,93216.59
2023-02-07T17:34:04.170Z,93221.78
2023-02-07T17:36:37.370Z,93224.00
2023-02-07T17:39:12.116Z,93218.81
2023-02-07T17:41:45.009Z,93219.75
2023-02-07T17:44:20.540Z,93224.59
2023-02-07T17:46:53.600Z,93228.63
2023-02-07T17:49:26.040Z,93233.84
2023-02-07T17:51:58.404Z,93229.34
2023-02-07T17:54:30.848Z,93233.50
2023-02-07T17:57:03.396Z,93227.06
2023-02-07T17:59:36.000Z,93221.47
2023-02-07T18:02:09.484Z,93224.25
2023-02-07T18:04:41.957Z,93223.03
2023-02-07T18:07:14.384Z,93230.16
2023-02-07T18:09:46.833Z,93225.06
2023-02-07T18:12:19.273Z,93236.28
2023-02-07T18:14:51.889Z,93230.47
2023-02-07T18:17:25.214Z,93238.38
2023-02-07T18:19:57.683Z,93235.06
2023-02-07T18:22:30.164Z,93237.44
2023-02-07T18:25:02.603Z,93234.09
2023-02-07T18:27:35.659Z,93232.94
2023-02-07T18:30:09.124Z,93236.47
2023-02-07T18:32:42.477Z,93241.88
2023-02-07T18:35:15.132Z,93237.31
2023-02-07T18:37:47.878Z,93232.66
2023-02-07T18:40:20.294Z,93244.50
2023-02-07T18:42:52.781Z,93234.66
2023-02-07T18:45:25.229Z,93243.09
2023-02-07T18:47:58.331Z,93248.19
2023-02-07T18:50:30.704Z,93244.03
2023-02-07T18:53:04.766Z,93247.06
2023-02-07T18:55:37.377Z,93246.09
2023-02-07T18:58:09.848Z,93250.25
2023-02-07T19:00:42.673Z,93251.38
2023-02-07T19:03:15.823Z,93258.50
2023-02-07T19:05:48.384Z,93251.84
2023-02-07T19:08:20.857Z,93252.44
2023-02-07T19:10:54.527Z,93252.16
2023-02-07T19:13:27.449Z,93249.00
2023-02-07T19:16:02.933Z,93255.75
2023-02-07T19:18:36.186Z,93231.41
2023-02-07T19:21:11.334Z,93257.03
2023-02-07T19:23:43.887Z,93253.31
2023-02-07T19:26:16.260Z,93251.00
2023-02-07T19:28:49.336Z,93255.13
2023-02-07T19:31:21.942Z,93258.44
2023-02-07T19:33:56.626Z,93255.72
2023-02-07T19:36:30.650Z,93254.53
2023-02-07T19:39:05.335Z,93259.03
2023-02-07T19:41:37.858Z,93256.94
2023-02-07T19:44:10.748Z,93253.16
2023-02-07T19:46:43.687Z,93261.88
2023-02-07T19:49:17.088Z,93266.84
2023-02-07T19:51:51.207Z,93260.63
2023-02-07T19:54:23.929Z,93265.72
2023-02-07T19:56:56.472Z,93269.03
2023-02-07T19:59:29.034Z,93259.69
2023-02-07T20:02:01.464Z,93269.84
2023-02-07T20:04:34.838Z,93273.69
2023-02-07T20:07:07.489Z,93270.63
2023-02-07T20:09:40.041Z,93279.34
2023-02-07T20:12:12.483Z,93282.97
2023-02-07T20:14:45.173Z,93283.78
2023-02-07T20:17:17.596Z,93289.31
2023-02-07T20:19:52.339Z,93285.97
2023-02-07T20:22:24.828Z,93290.66
2023-02-07T20:24:57.535Z,93295.94
2023-02-07T20:27:30.100Z,93299.25
2023-02-07T20:30:03.673Z,93305.16
2023-02-07T20:32:36.248Z,93304.84
2023-02-07T20:35:09.515Z,93304.06
2023-02-07T20:37:41.863Z,93304.25
2023-02-07T20:40:14.455Z,93307.91
2023-02-07T20:42:46.951Z,93308.69
2023-02-07T20:45:19.394Z,93303.84
2023-02-07T20:47:51.766Z,93305.94
2023-02-07T20:50:25.111Z,93309.25
2023-02-07T20:52:57.875Z,93308.94
2023-02-07T20:55:30.732Z,93307.72
2023-02-07T20:58:03.112Z,93310.59
2023-02-07T21:00:35.585Z,93311.72
2023-02-07T21:03:08.055Z,93306.03
2023-02-07T21:05:41.253Z,93308.41
2023-02-07T21:08:13.692Z,93308.56
2023-02-07T21:10:46.313Z,93314.75
2023-02-07T21:13:18.691Z,93310.66
2023-02-07T21:16:02.502Z,93309.88
2023-02-07T21:18:35.701Z,93314.47
2023-02-07T21:21:08.982Z,93327.63
2023-02-07T21:23:41.854Z,93312.88
2023-02-07T21:26:15.380Z,93313.69
2023-02-07T21:28:47.867Z,93315.06
2023-02-07T21:31:21.768Z,93326.03
2023-02-07T21:33:54.384Z,93322.69
2023-02-07T21:36:29.164Z,93326.66
2023-02-07T21:39:03.759Z,93308.88
2023-02-07T21:41:38.269Z,93322.53
2023-02-07T21:44:12.347Z,93302.91
2023-02-07T21:46:45.739Z,93319.03
2023-02-07T21:49:19.853Z,93315.75
2023-02-07T21:51:53.177Z,93320.66
2023-02-07T21:54:25.597Z,93323.34
2023-02-07T21:56:58.189Z,93326.84
2023-02-07T21:59:30.581Z,93329.41
2023-02-07T22:02:03.906Z,93315.13
2023-02-07T22:04:36.438Z,93328.75
2023-02-07T22:07:09.673Z,93338.13
2023-02-07T22:09:42.126Z,93325.13
2023-02-07T22:12:14.582Z,93337.19
2023-02-07T22:14:46.981Z,93338.75
2023-02-07T22:17:19.463Z,93339.69
2023-02-07T22:19:52.103Z,93334.00
2023-02-07T22:22:25.270Z,93336.56
2023-02-07T22:24:57.661Z,93336.56
2023-02-07T22:27:30.340Z,93336.06
2023-02-07T22:30:02.956Z,93339.72
2023-02-07T22:32:35.772Z,93334.47
2023-02-07T22:35:08.288Z,93347.50
2023-02-07T22:37:41.526Z,93350.03
2023-02-07T22:40:14.053Z,93347.34
2023-02-07T22:42:46.506Z,93347.19
2023-02-07T22:45:18.939Z,93347.81
2023-02-07T22:47:51.515Z,93349.06
2023-02-07T22:50:23.996Z,93348.28
2023-02-07T22:52:57.350Z,93356.22
2023-02-07T22:55:31.599Z,93343.69
2023-02-07T22:58:04.051Z,93342.41
2023-02-07T23:00:36.526Z,93347.16
2023-02-07T23:03:09.228Z,93350.50
2023-02-07T23:05:41.772Z,93356.88
2023-02-07T23:08:15.000Z,93345.09
2023-02-07T23:10:47.425Z,93353.69
2023-02-07T23:13:19.854Z,93347.66
2023-02-07T23:15:53.270Z,93347.50
2023-02-07T23:18:25.661Z,93341.63
2023-02-07T23:20:58.085Z,93343.03
2023-02-07T23:23:31.476Z,93334.78
2023-02-07T23:26:06.210Z,93334.19
2023-02-07T23:28:38.806Z,93342.41
2023-02-07T23:31:14.273Z,93340.34
2023-02-07T23:33:47.308Z,93335.09
2023-02-07T23:36:20.188Z,93329.22
2023-02-07T23:38:53.194Z,93325.09
2023-02-07T23:41:25.623Z,93328.09
2023-02-07T23:43:59.690Z,93332.06
2023-02-07T23:46:32.309Z,93332.06
2023-02-07T23:49:05.444Z,93316.47
2023-02-07T23:51:37.801Z,93323.94
2023-02-07T23:54:11.039Z,93320.13
2023-02-07T23:56:43.360Z,93316.03
2023-02-07T23:59:15.829Z,93310.84
